Time;durP1;ratioP1;P1;durP2;ratioP2;P2;SDS_P1;SDS_P2;PMS_P1;PMS_P2;Temp;Humidity;BMP_temperature;BMP_pressure;BME280_temperature;BME280_humidity;BME280_pressure;Samples;Min_cycle;Max_cycle;Signal;HPM_P1;HPM_P2
2021/11/30 00:00:39;;;;;;;20.85;8.10;;;3.60;99.90;;;;;;5008882;28;20022;-60
2021/11/30 00:03:04;;;;;;;25.52;9.63;;;3.60;99.90;;;;;;5003396;28;20042;-54
2021/11/30 00:05:30;;;;;;;20.38;8.15;;;3.50;99.90;;;;;;5014918;28;20036;-57
2021/11/30 00:07:57;;;;;;;20.52;8.73;;;3.50;99.90;;;;;;5020179;28;20034;-57
2021/11/30 00:13:07;;;;;;;20.48;8.68;;;3.50;99.90;;;;;;5020870;28;20340;-57
2021/11/30 00:15:33;;;;;;;23.75;8.38;;;3.50;99.90;;;;;;5014860;28;20796;-58
2021/11/30 00:17:58;;;;;;;15.30;7.68;;;3.50;99.90;;;;;;5013343;28;20040;-57
2021/11/30 00:20:24;;;;;;;14.73;8.10;;;3.40;99.90;;;;;;5012829;28;20076;-56
2021/11/30 00:22:49;;;;;;;18.13;8.45;;;3.40;99.90;;;;;;5019609;28;20033;-57
2021/11/30 00:25:15;;;;;;;16.88;8.70;;;3.40;99.90;;;;;;5003976;28;20097;-54
2021/11/30 00:27:40;;;;;;;18.23;9.05;;;3.40;99.90;;;;;;5003807;28;20472;-57
2021/11/30 00:30:06;;;;;;;21.88;9.98;;;3.40;99.90;;;;;;5021891;28;20549;-58
2021/11/30 00:32:32;;;;;;;23.63;8.90;;;3.40;99.90;;;;;;5015928;28;20026;-57
2021/11/30 00:34:58;;;;;;;20.83;9.32;;;3.40;99.90;;;;;;5020571;28;20624;-55
2021/11/30 00:37:23;;;;;;;18.65;9.40;;;3.40;99.90;;;;;;5009567;28;20105;-60
2021/11/30 00:39:49;;;;;;;15.95;8.13;;;3.30;99.90;;;;;;5006752;28;20403;-56
2021/11/30 00:42:14;;;;;;;27.35;9.82;;;3.30;99.90;;;;;;5010078;28;20077;-54
2021/11/30 00:44:42;;;;;;;22.73;11.07;;;3.30;99.90;;;;;;5015014;28;20380;-57
2021/11/30 00:47:16;;;;;;;24.33;9.32;;;3.30;99.90;;;;;;5014498;28;20026;-54
2021/11/30 00:49:43;;;;;;;22.52;9.65;;;3.20;99.90;;;;;;5012705;28;20093;-57
2021/11/30 00:52:09;;;;;;;19.00;9.32;;;3.20;99.90;;;;;;5007356;28;20033;-58
2021/11/30 00:54:34;;;;;;;22.85;9.20;;;3.20;99.90;;;;;;5020113;28;20087;-58
2021/11/30 00:57:00;;;;;;;18.77;8.40;;;3.20;99.90;;;;;;5008385;28;20506;-56
2021/11/30 00:59:28;;;;;;;24.38;9.65;;;3.20;99.90;;;;;;4999346;28;20430;-56
2021/11/30 01:01:58;;;;;;;16.17;8.13;;;3.20;99.90;;;;;;5002402;28;20026;-56
2021/11/30 01:04:24;;;;;;;20.73;9.23;;;3.10;99.90;;;;;;4995969;28;20034;-55
2021/11/30 01:06:50;;;;;;;23.40;9.90;;;3.10;99.90;;;;;;5004040;28;20034;-58
2021/11/30 01:09:16;;;;;;;21.20;9.75;;;3.10;99.90;;;;;;4999728;28;20030;-57
2021/11/30 01:11:42;;;;;;;21.77;9.25;;;3.10;99.90;;;;;;5000098;28;20601;-59
2021/11/30 01:14:09;;;;;;;17.80;8.48;;;3.10;99.90;;;;;;4998485;28;20030;-59
2021/11/30 01:16:35;;;;;;;22.95;10.10;;;3.10;99.90;;;;;;5002702;28;20619;-58
2021/11/30 01:19:01;;;;;;;21.10;8.30;;;3.10;99.90;;;;;;5000895;28;20040;-58
2021/11/30 01:21:27;;;;;;;16.88;7.15;;;3.10;99.90;;;;;;5003886;28;20030;-58
2021/11/30 01:23:52;;;;;;;18.27;8.43;;;3.10;99.90;;;;;;5006656;28;20036;-58
2021/11/30 01:26:18;;;;;;;13.68;7.10;;;3.10;99.90;;;;;;4994997;28;20036;-57
2021/11/30 01:28:44;;;;;;;19.83;8.32;;;3.10;99.90;;;;;;5005689;28;20365;-58
2021/11/30 01:31:11;;;;;;;14.60;7.38;;;3.10;99.90;;;;;;5010352;28;20391;-60
2021/11/30 01:33:37;;;;;;;22.25;7.95;;;3.10;99.90;;;;;;5010337;28;20026;-59
2021/11/30 01:36:04;;;;;;;12.75;5.88;;;3.00;99.90;;;;;;5003602;28;20099;-57
2021/11/30 01:38:31;;;;;;;16.35;6.68;;;3.10;99.90;;;;;;4997424;28;20046;-57
2021/11/30 01:40:59;;;;;;;17.20;5.15;;;3.00;99.90;;;;;;5001215;28;20044;-58
2021/11/30 01:43:27;;;;;;;17.88;5.55;;;3.00;99.90;;;;;;4993680;28;20085;-57
2021/11/30 01:46:11;;;;;;;16.60;5.72;;;3.00;99.90;;;;;;5007902;28;20032;-58
2021/11/30 01:51:23;;;;;;;9.90;5.32;;;3.10;99.90;;;;;;5003883;28;20412;-58
2021/11/30 01:53:51;;;;;;;15.88;5.18;;;3.00;99.90;;;;;;5011271;28;20026;-62
2021/11/30 01:56:17;;;;;;;10.25;4.80;;;3.00;99.90;;;;;;5020489;28;20053;-57
2021/11/30 01:58:43;;;;;;;8.38;3.65;;;3.00;99.90;;;;;;5020980;28;20053;-59
2021/11/30 02:01:09;;;;;;;9.07;3.67;;;3.00;99.90;;;;;;5023491;28;20047;-57
2021/11/30 02:03:35;;;;;;;8.80;3.50;;;3.00;99.90;;;;;;5018061;28;20022;-60
2021/11/30 02:06:01;;;;;;;8.68;3.58;;;3.00;99.90;;;;;;5017685;28;20034;-59
2021/11/30 02:08:26;;;;;;;7.97;3.50;;;3.00;99.90;;;;;;5012884;28;20048;-57
2021/11/30 02:10:56;;;;;;;7.65;3.28;;;3.00;99.90;;;;;;5001391;28;20037;-58
2021/11/30 02:13:22;;;;;;;6.53;2.97;;;3.00;99.90;;;;;;4999903;28;20034;-56
2021/11/30 02:15:51;;;;;;;6.90;2.97;;;3.10;99.90;;;;;;5006526;28;20108;-56
2021/11/30 02:18:22;;;;;;;9.32;3.15;;;3.10;99.90;;;;;;5017193;28;20025;-58
2021/11/30 02:20:49;;;;;;;7.25;3.03;;;3.00;99.90;;;;;;5012801;28;20030;-55
2021/11/30 02:23:29;;;;;;;7.07;2.95;;;3.00;99.90;;;;;;5005785;28;20474;-58
2021/11/30 02:25:55;;;;;;;7.43;2.85;;;3.10;99.90;;;;;;5003384;28;20080;-57
2021/11/30 02:28:20;;;;;;;11.15;3.30;;;3.00;99.90;;;;;;5003804;28;20099;-58
2021/11/30 02:30:46;;;;;;;7.85;2.92;;;3.00;99.90;;;;;;5005738;28;20065;-55
2021/11/30 02:33:11;;;;;;;5.28;2.92;;;3.00;99.90;;;;;;5001255;28;20030;-58
2021/11/30 02:35:37;;;;;;;7.07;2.85;;;3.00;99.90;;;;;;5006939;28;20049;-57
2021/11/30 02:38:07;;;;;;;10.52;3.63;;;2.90;99.90;;;;;;5001461;28;20054;-57
2021/11/30 02:40:34;;;;;;;5.50;2.75;;;2.90;99.90;;;;;;5003215;28;20073;-58
2021/11/30 02:43:00;;;;;;;6.75;2.92;;;2.90;99.90;;;;;;5001475;28;20479;-58
2021/11/30 02:45:26;;;;;;;11.32;3.17;;;2.90;99.90;;;;;;5004165;28;20041;-55
2021/11/30 02:47:51;;;;;;;5.15;2.40;;;2.90;99.90;;;;;;5002989;28;20041;-60
2021/11/30 02:50:17;;;;;;;7.78;2.50;;;2.90;99.90;;;;;;4999988;28;20034;-55
2021/11/30 02:52:42;;;;;;;4.13;2.25;;;2.90;99.90;;;;;;5009664;28;20072;-56
2021/11/30 02:55:08;;;;;;;9.52;3.08;;;2.90;99.90;;;;;;5006467;28;20135;-56
2021/11/30 02:57:34;;;;;;;6.28;2.40;;;2.90;99.90;;;;;;5003006;28;20411;-58
2021/11/30 02:59:59;;;;;;;10.90;2.47;;;2.90;99.90;;;;;;5003070;28;20075;-57
2021/11/30 03:02:27;;;;;;;3.88;2.15;;;2.80;99.90;;;;;;5003664;28;20118;-50
2021/11/30 03:04:56;;;;;;;8.40;2.92;;;2.80;99.90;;;;;;5005862;28;20044;-58
2021/11/30 03:07:25;;;;;;;12.27;3.80;;;2.80;99.90;;;;;;5007920;28;20043;-52
2021/11/30 03:09:52;;;;;;;13.27;3.10;;;2.70;99.90;;;;;;5003834;28;20033;-60
2021/11/30 03:12:17;;;;;;;7.28;2.97;;;2.70;99.90;;;;;;5003498;28;20076;-59
2021/11/30 03:14:43;;;;;;;10.05;3.08;;;2.60;99.90;;;;;;5003971;28;20403;-57
2021/11/30 03:17:10;;;;;;;5.25;2.65;;;2.60;99.90;;;;;;5000986;28;20038;-60
2021/11/30 03:19:36;;;;;;;7.43;3.20;;;2.60;99.90;;;;;;5023508;28;20048;-57
2021/11/30 03:22:03;;;;;;;11.68;3.78;;;2.60;99.90;;;;;;5010695;28;20041;-58
2021/11/30 03:24:29;;;;;;;9.27;3.33;;;2.60;99.90;;;;;;4998090;28;20128;-59
2021/11/30 03:26:55;;;;;;;7.50;3.03;;;2.50;99.90;;;;;;4998680;28;20080;-58
2021/11/30 03:29:21;;;;;;;10.02;3.70;;;2.40;99.90;;;;;;5006679;28;20435;-53
2021/11/30 03:31:50;;;;;;;6.38;3.05;;;2.50;99.90;;;;;;5005909;28;20748;-60
2021/11/30 03:34:18;;;;;;;12.30;3.03;;;2.40;99.90;;;;;;4996517;28;20052;-57
2021/11/30 03:36:47;;;;;;;8.40;2.78;;;2.40;99.90;;;;;;5000314;28;20117;-57
2021/11/30 03:39:17;;;;;;;5.57;2.67;;;2.30;99.90;;;;;;4998100;28;20033;-60
2021/11/30 03:41:43;;;;;;;6.05;2.72;;;2.30;99.90;;;;;;5002386;28;20038;-60
2021/11/30 03:44:09;;;;;;;8.13;3.05;;;2.20;99.90;;;;;;4998911;28;20128;-59
2021/11/30 03:46:36;;;;;;;11.93;3.88;;;2.20;99.90;;;;;;5003694;28;20026;-59
2021/11/30 03:49:06;;;;;;;7.93;2.50;;;2.10;99.90;;;;;;4995568;28;20059;-57
2021/11/30 03:51:32;;;;;;;10.45;2.70;;;2.10;99.90;;;;;;5002981;28;20084;-57
2021/11/30 03:53:58;;;;;;;6.43;2.67;;;2.00;99.90;;;;;;5007216;28;20030;-57
2021/11/30 03:56:25;;;;;;;10.70;3.25;;;2.00;99.90;;;;;;5004054;28;20373;-55
2021/11/30 03:58:50;;;;;;;6.88;2.80;;;2.00;99.90;;;;;;5004682;28;20042;-58
2021/11/30 04:01:16;;;;;;;6.60;3.00;;;1.90;99.90;;;;;;4996473;28;20045;-53
2021/11/30 04:03:42;;;;;;;7.75;3.42;;;1.90;99.90;;;;;;5004482;28;20516;-52
2021/11/30 04:06:08;;;;;;;4.82;2.78;;;1.90;99.90;;;;;;5003600;28;20033;-58
2021/11/30 04:08:34;;;;;;;11.50;3.20;;;1.90;99.90;;;;;;5001078;28;20539;-55
2021/11/30 04:11:00;;;;;;;5.47;2.20;;;1.80;99.90;;;;;;5004184;28;20121;-57
2021/11/30 04:13:26;;;;;;;4.50;2.15;;;1.80;99.90;;;;;;5001247;28;20453;-59
2021/11/30 04:15:51;;;;;;;6.40;2.70;;;1.80;99.90;;;;;;5003165;28;20542;-56
2021/11/30 04:18:17;;;;;;;14.60;2.42;;;1.80;99.90;;;;;;5009078;28;20042;-57
2021/11/30 04:20:42;;;;;;;9.43;2.75;;;1.80;99.90;;;;;;5011734;28;20033;-59
2021/11/30 04:23:08;;;;;;;4.78;2.70;;;1.80;99.90;;;;;;5008409;28;20549;-57
2021/11/30 04:25:34;;;;;;;3.70;2.10;;;1.80;99.90;;;;;;5003864;28;20064;-60
2021/11/30 04:28:00;;;;;;;6.10;2.03;;;1.80;99.90;;;;;;5002312;28;20046;-58
2021/11/30 04:30:26;;;;;;;5.00;2.35;;;1.80;99.90;;;;;;5000427;28;20112;-53
2021/11/30 04:32:52;;;;;;;4.55;2.67;;;1.80;99.90;;;;;;5000128;28;20053;-59
2021/11/30 04:35:18;;;;;;;12.70;2.40;;;1.80;99.90;;;;;;5009755;28;20064;-56
2021/11/30 04:37:44;;;;;;;5.57;2.70;;;1.80;99.90;;;;;;5013794;28;20034;-60
2021/11/30 04:40:12;;;;;;;9.10;2.25;;;1.80;99.90;;;;;;5003965;28;20080;-60
2021/11/30 04:42:39;;;;;;;3.80;2.15;;;1.80;99.90;;;;;;4998195;28;20072;-58
2021/11/30 04:45:09;;;;;;;5.20;2.58;;;1.80;99.90;;;;;;5003819;28;20034;-56
2021/11/30 04:47:37;;;;;;;6.93;2.50;;;1.80;99.90;;;;;;5004872;28;20100;-60
2021/11/30 04:50:08;;;;;;;6.35;2.63;;;1.80;99.90;;;;;;5003015;28;20030;-59
2021/11/30 04:52:35;;;;;;;5.05;2.10;;;1.80;99.90;;;;;;5008238;28;20480;-59
2021/11/30 04:55:00;;;;;;;6.40;2.35;;;1.80;99.90;;;;;;5013724;28;20442;-60
2021/11/30 04:57:26;;;;;;;6.57;2.60;;;1.80;99.90;;;;;;5013764;28;20217;-59
2021/11/30 04:59:53;;;;;;;9.25;2.58;;;1.80;99.90;;;;;;5012717;28;20033;-58
2021/11/30 05:02:19;;;;;;;5.65;2.47;;;1.90;99.90;;;;;;5016170;28;20033;-60
2021/11/30 05:04:47;;;;;;;6.95;2.42;;;1.80;99.90;;;;;;5011604;28;20033;-57
2021/11/30 05:07:16;;;;;;;6.75;2.70;;;1.90;99.90;;;;;;4998549;28;20038;-56
2021/11/30 05:09:43;;;;;;;8.55;2.70;;;2.00;99.90;;;;;;5005660;28;20041;-57
2021/11/30 05:12:10;;;;;;;5.07;2.63;;;2.00;99.90;;;;;;5008439;28;20471;-55
2021/11/30 05:14:36;;;;;;;4.85;2.08;;;2.00;99.90;;;;;;5008871;28;20606;-57
2021/11/30 05:17:02;;;;;;;9.75;2.60;;;2.10;99.90;;;;;;5008506;28;20042;-56
2021/11/30 05:19:27;;;;;;;5.80;2.83;;;2.10;99.90;;;;;;5013096;28;20062;-58
2021/11/30 05:21:53;;;;;;;6.38;2.25;;;2.10;99.90;;;;;;5007285;28;20038;-60
2021/11/30 05:24:19;;;;;;;3.50;2.35;;;2.20;99.90;;;;;;5005898;28;20791;-56
2021/11/30 05:26:46;;;;;;;6.15;2.67;;;2.20;99.90;;;;;;5009445;28;20029;-59
2021/11/30 05:29:12;;;;;;;3.03;1.92;;;2.20;99.90;;;;;;5009181;28;20610;-58
2021/11/30 05:31:37;;;;;;;3.97;2.35;;;2.20;99.90;;;;;;5014925;28;20109;-59
2021/11/30 05:34:04;;;;;;;5.88;2.38;;;2.30;99.90;;;;;;5001806;28;20030;-59
2021/11/30 05:36:30;;;;;;;21.65;8.15;;;2.30;99.90;;;;;;5009226;28;20022;-60
2021/11/30 05:38:56;;;;;;;7.35;4.20;;;2.30;99.90;;;;;;5006842;28;20022;-58
2021/11/30 05:41:22;;;;;;;2.85;1.63;;;2.40;99.90;;;;;;5005050;28;20101;-57
2021/11/30 05:43:47;;;;;;;5.10;1.92;;;2.40;99.90;;;;;;5001825;28;20137;-58
2021/11/30 05:46:13;;;;;;;2.75;1.85;;;2.50;99.90;;;;;;4999772;28;20023;-57
2021/11/30 05:48:39;;;;;;;4.82;1.70;;;2.40;99.90;;;;;;5007003;28;20022;-58
2021/11/30 05:51:05;;;;;;;2.20;1.52;;;2.50;99.90;;;;;;5006339;28;20026;-57
2021/11/30 05:53:31;;;;;;;2.20;1.80;;;2.50;99.90;;;;;;5000047;28;20484;-60
2021/11/30 05:55:59;;;;;;;14.27;5.57;;;2.60;99.90;;;;;;5001721;28;20022;-57
2021/11/30 05:58:26;;;;;;;4.53;2.63;;;2.60;99.90;;;;;;5001616;28;20487;-58
2021/11/30 06:00:51;;;;;;;2.95;2.45;;;2.70;99.90;;;;;;5002192;28;20026;-57
2021/11/30 06:03:33;;;;;;;4.82;2.78;;;2.70;99.90;;;;;;4993016;28;20022;-60
2021/11/30 06:05:59;;;;;;;21.60;9.10;;;2.80;99.90;;;;;;4994698;28;20022;-60
2021/11/30 06:08:24;;;;;;;10.85;5.28;;;2.80;99.90;;;;;;5000338;28;20433;-55
2021/11/30 06:10:50;;;;;;;42.22;19.85;;;3.00;99.90;;;;;;4995313;28;20034;-60
2021/11/30 06:13:16;;;;;;;24.92;11.05;;;3.20;99.90;;;;;;5005765;28;20037;-57
2021/11/30 06:15:41;;;;;;;34.40;15.15;;;3.40;99.90;;;;;;5003604;28;20108;-57
2021/11/30 06:18:07;;;;;;;42.80;20.92;;;3.50;99.90;;;;;;5006219;28;20037;-58
2021/11/30 06:20:34;;;;;;;8.75;5.55;;;3.60;99.90;;;;;;4997505;28;20026;-57
2021/11/30 06:23:01;;;;;;;31.80;14.98;;;3.70;99.90;;;;;;5006791;28;20025;-60
2021/11/30 06:25:27;;;;;;;10.75;7.28;;;3.70;99.90;;;;;;5000437;28;20026;-57
2021/11/30 06:27:53;;;;;;;9.23;6.05;;;3.80;99.90;;;;;;4998751;28;20037;-54
2021/11/30 06:30:19;;;;;;;7.32;5.03;;;3.90;99.90;;;;;;4997528;28;20037;-56
2021/11/30 06:32:46;;;;;;;7.20;4.90;;;4.00;99.90;;;;;;5005211;28;20085;-59
2021/11/30 06:35:12;;;;;;;7.43;4.97;;;4.10;99.90;;;;;;5005208;28;20891;-58
2021/11/30 06:37:38;;;;;;;5.97;4.35;;;4.10;99.90;;;;;;5005848;28;20046;-59
2021/11/30 06:40:04;;;;;;;6.88;4.65;;;4.20;99.90;;;;;;5003102;28;20495;-57
2021/11/30 06:42:30;;;;;;;4.78;3.75;;;4.30;99.90;;;;;;5005974;28;20101;-58
2021/11/30 06:44:55;;;;;;;7.90;5.28;;;4.30;99.90;;;;;;5001562;28;20030;-58
2021/11/30 06:47:21;;;;;;;11.15;7.03;;;4.40;99.90;;;;;;5005530;28;20038;-59
2021/11/30 06:49:47;;;;;;;11.95;6.45;;;4.40;99.90;;;;;;5006603;28;20147;-60
2021/11/30 06:52:12;;;;;;;10.60;6.10;;;4.40;99.90;;;;;;5004453;28;20042;-58
2021/11/30 06:54:47;;;;;;;10.95;6.20;;;4.50;99.90;;;;;;4999910;28;20034;-60
2021/11/30 06:57:14;;;;;;;10.88;6.80;;;4.40;99.90;;;;;;4996157;28;20046;-59
2021/11/30 06:59:40;;;;;;;11.35;6.60;;;4.50;99.90;;;;;;5010786;28;20033;-58
2021/11/30 07:02:08;;;;;;;12.40;6.45;;;4.50;99.90;;;;;;5002936;28;20046;-58
2021/11/30 07:04:38;;;;;;;17.90;12.05;;;4.50;99.90;;;;;;5005780;28;20057;-60
2021/11/30 07:15:01;;;;;;;13.13;7.32;;;4.70;99.90;;;;;;5006651;28;20021;-59
2021/11/30 07:17:26;;;;;;;24.33;14.23;;;4.70;99.90;;;;;;5002477;28;20038;-57
2021/11/30 07:19:52;;;;;;;36.47;19.10;;;4.70;99.90;;;;;;5003396;28;20518;-57
2021/11/30 07:22:17;;;;;;;23.65;13.15;;;4.70;99.90;;;;;;4998932;28;20034;-58
2021/11/30 07:24:44;;;;;;;43.42;20.13;;;4.70;99.90;;;;;;4999923;28;20029;-57
2021/11/30 07:27:10;;;;;;;20.25;11.48;;;4.70;99.90;;;;;;4999694;28;20029;-57
2021/11/30 07:29:36;;;;;;;13.88;8.35;;;4.80;99.90;;;;;;5012789;28;20443;-59
2021/11/30 07:32:01;;;;;;;21.73;9.98;;;4.80;99.90;;;;;;5004471;28;20061;-58
2021/11/30 07:34:29;;;;;;;16.20;10.18;;;4.90;99.90;;;;;;5007963;28;20038;-56
2021/11/30 07:36:54;;;;;;;18.90;10.95;;;4.90;99.90;;;;;;5002643;28;20113;-59
2021/11/30 07:39:20;;;;;;;18.52;11.27;;;4.90;99.90;;;;;;5001414;28;20118;-57
2021/11/30 07:41:45;;;;;;;13.00;7.93;;;4.90;99.90;;;;;;5001193;28;20117;-60
2021/11/30 07:44:11;;;;;;;13.43;7.78;;;4.90;99.90;;;;;;5001021;28;20057;-58
2021/11/30 07:46:38;;;;;;;17.13;9.68;;;4.90;99.90;;;;;;5000537;28;20041;-60
2021/11/30 07:49:04;;;;;;;13.30;9.43;;;5.00;99.90;;;;;;5000579;28;20071;-58
2021/11/30 07:51:31;;;;;;;22.00;12.15;;;5.00;99.90;;;;;;5002700;28;20061;-59
2021/11/30 07:53:57;;;;;;;22.73;12.95;;;5.00;99.90;;;;;;4998645;28;20567;-59
2021/11/30 07:56:23;;;;;;;114.72;47.22;;;5.00;99.90;;;;;;4999272;28;20125;-57
2021/11/30 07:58:49;;;;;;;61.95;30.60;;;5.00;99.90;;;;;;5001852;28;20032;-58
2021/11/30 08:01:16;;;;;;;42.53;20.60;;;5.10;99.90;;;;;;4980599;28;20093;-59
2021/11/30 08:03:41;;;;;;;21.90;12.20;;;5.10;99.90;;;;;;5000350;28;20198;-56
2021/11/30 08:06:07;;;;;;;13.80;9.40;;;5.10;99.90;;;;;;5004435;28;20065;-60
2021/11/30 08:08:33;;;;;;;17.75;9.60;;;5.20;99.90;;;;;;5000450;28;20058;-55
2021/11/30 08:10:59;;;;;;;15.82;8.40;;;5.20;99.90;;;;;;4993930;28;20053;-58
2021/11/30 08:13:24;;;;;;;12.00;7.57;;;5.30;99.90;;;;;;4995721;28;20392;-58
2021/11/30 08:15:50;;;;;;;25.52;15.77;;;5.30;99.90;;;;;;5000802;28;20035;-60
2021/11/30 08:18:16;;;;;;;43.42;24.30;;;5.30;99.90;;;;;;5011909;28;20056;-57
2021/11/30 08:20:42;;;;;;;24.55;14.68;;;5.30;99.90;;;;;;4997060;28;20039;-60
2021/11/30 08:23:07;;;;;;;21.48;14.25;;;5.40;99.90;;;;;;4995395;28;20041;-56
2021/11/30 08:25:34;;;;;;;17.25;12.07;;;5.40;99.90;;;;;;5001495;28;20025;-58
2021/11/30 08:28:00;;;;;;;20.60;13.60;;;5.40;99.90;;;;;;4991683;28;20038;-59
2021/11/30 08:30:26;;;;;;;30.38;16.83;;;5.40;99.90;;;;;;4991110;28;20018;-55
2021/11/30 08:32:51;;;;;;;19.98;13.02;;;5.50;99.90;;;;;;4994780;28;20113;-60
2021/11/30 08:35:17;;;;;;;20.58;12.43;;;5.50;99.90;;;;;;4991120;28;20026;-58
2021/11/30 08:37:43;;;;;;;18.92;11.70;;;5.50;99.90;;;;;;4993795;28;20046;-57
2021/11/30 08:40:10;;;;;;;22.45;13.30;;;5.60;99.90;;;;;;4992871;28;20084;-59
2021/11/30 08:42:36;;;;;;;20.75;11.32;;;5.60;99.90;;;;;;5002122;28;20502;-59
2021/11/30 08:45:03;;;;;;;18.58;12.35;;;5.60;99.90;;;;;;4998706;28;20484;-55
2021/11/30 08:47:29;;;;;;;22.27;11.85;;;5.70;99.90;;;;;;5009583;28;20042;-59
2021/11/30 08:49:55;;;;;;;24.30;12.48;;;5.70;99.90;;;;;;5009439;28;20026;-60
2021/11/30 08:52:26;;;;;;;17.65;10.80;;;5.70;99.90;;;;;;4999015;28;20468;-58
2021/11/30 08:54:54;;;;;;;14.57;9.02;;;5.70;99.90;;;;;;5003256;28;20029;-60
2021/11/30 08:57:20;;;;;;;19.25;10.70;;;5.80;99.90;;;;;;5005025;28;20112;-57
2021/11/30 08:59:46;;;;;;;18.10;10.50;;;5.80;99.90;;;;;;5006515;28;20022;-51
2021/11/30 09:02:14;;;;;;;23.38;11.95;;;5.80;99.90;;;;;;4987948;28;20053;-60
2021/11/30 09:04:40;;;;;;;18.33;11.75;;;5.90;99.90;;;;;;5009448;28;20029;-58
2021/11/30 09:07:05;;;;;;;15.80;8.80;;;5.90;99.90;;;;;;5003031;28;20034;-58
2021/11/30 09:09:31;;;;;;;25.55;12.18;;;5.90;99.90;;;;;;5005893;28;20029;-58
2021/11/30 09:11:58;;;;;;;17.15;10.15;;;5.90;99.90;;;;;;5005599;28;20026;-60
2021/11/30 09:14:25;;;;;;;14.43;8.93;;;6.00;99.90;;;;;;5011472;28;20025;-58
2021/11/30 09:16:52;;;;;;;21.95;10.57;;;6.00;99.90;;;;;;5010885;28;20037;-58
2021/11/30 09:19:18;;;;;;;17.77;9.60;;;6.00;99.90;;;;;;5008716;28;20034;-54
2021/11/30 09:21:44;;;;;;;17.45;10.15;;;6.10;99.90;;;;;;4996075;28;20038;-58
2021/11/30 09:24:10;;;;;;;13.77;9.35;;;6.10;99.90;;;;;;5003160;28;20504;-59
2021/11/30 09:26:36;;;;;;;14.07;8.70;;;6.10;99.90;;;;;;5014779;28;20038;-60
2021/11/30 09:29:02;;;;;;;13.40;8.45;;;6.10;99.90;;;;;;5007992;28;20022;-58
2021/11/30 09:31:28;;;;;;;11.63;7.40;;;6.20;99.90;;;;;;5002376;28;20075;-60
2021/11/30 09:33:54;;;;;;;11.63;7.28;;;6.20;99.90;;;;;;5000903;28;20117;-56
2021/11/30 09:36:20;;;;;;;11.02;6.97;;;6.30;99.90;;;;;;5002550;28;20018;-58
2021/11/30 09:38:46;;;;;;;10.55;7.65;;;6.30;99.90;;;;;;5004302;28;20037;-60
2021/11/30 09:41:12;;;;;;;12.82;7.15;;;6.30;99.90;;;;;;5004141;28;20113;-58
2021/11/30 09:43:38;;;;;;;11.10;7.40;;;6.30;99.90;;;;;;5015654;28;20029;-59
2021/11/30 09:46:06;;;;;;;10.13;6.93;;;6.40;99.90;;;;;;5005840;28;20053;-59
2021/11/30 09:48:32;;;;;;;10.98;6.32;;;6.40;99.90;;;;;;5006676;28;20045;-61
2021/11/30 09:50:59;;;;;;;10.85;6.90;;;6.50;99.90;;;;;;4999419;28;20076;-58
2021/11/30 09:53:27;;;;;;;9.90;6.53;;;6.50;99.90;;;;;;5014540;28;20036;-60
2021/11/30 09:55:54;;;;;;;8.02;5.72;;;6.50;99.90;;;;;;5003589;28;20391;-59
2021/11/30 09:58:22;;;;;;;11.50;6.75;;;6.50;99.90;;;;;;4999241;28;20033;-57
2021/11/30 10:00:51;;;;;;;12.27;7.18;;;6.50;99.90;;;;;;5001705;28;20084;-57
2021/11/30 10:03:20;;;;;;;10.80;7.00;;;6.50;99.90;;;;;;5020602;28;20025;-58
2021/11/30 10:05:45;;;;;;;12.07;7.53;;;6.60;99.90;;;;;;4999238;28;20052;-59
2021/11/30 10:08:32;;;;;;;14.00;9.10;;;6.60;99.90;;;;;;5004506;28;20687;-60
2021/11/30 10:11:00;;;;;;;11.15;7.03;;;6.60;99.90;;;;;;4997533;28;20026;-58
2021/11/30 10:13:26;;;;;;;9.95;8.20;;;6.60;99.90;;;;;;5004814;28;20034;-59
2021/11/30 10:16:03;;;;;;;11.75;8.45;;;6.60;99.90;;;;;;4995281;28;20026;-60
2021/11/30 10:18:42;;;;;;;12.13;6.55;;;6.70;99.90;;;;;;5003176;28;20097;-58
2021/11/30 10:21:22;;;;;;;9.02;6.65;;;6.70;99.90;;;;;;5003496;28;20535;-59
2021/11/30 10:23:47;;;;;;;10.98;8.23;;;6.70;99.90;;;;;;5016970;28;20096;-60
2021/11/30 10:26:14;;;;;;;13.15;8.35;;;6.70;99.90;;;;;;5000911;28;20121;-60
2021/11/30 10:28:40;;;;;;;11.10;6.72;;;6.70;99.90;;;;;;5006628;28;20497;-60
2021/11/30 10:31:09;;;;;;;10.43;6.45;;;6.70;99.90;;;;;;5004229;28;20108;-60
2021/11/30 10:33:35;;;;;;;9.60;6.75;;;6.70;99.90;;;;;;5000621;28;20097;-59
2021/11/30 10:36:03;;;;;;;11.27;7.53;;;6.70;99.90;;;;;;5004164;28;20582;-58
2021/11/30 10:38:37;;;;;;;14.48;8.80;;;6.80;99.90;;;;;;5006993;28;20030;-56
2021/11/30 10:41:29;;;;;;;;;;;6.80;99.90;;;;;;4998867;28;20033;-60
2021/11/30 10:44:03;;;;;;;13.95;7.43;;;6.80;99.90;;;;;;5002311;28;19988;-59
2021/11/30 10:46:34;;;;;;;10.32;6.88;;;6.80;99.90;;;;;;5001680;28;20034;-57
2021/11/30 10:49:01;;;;;;;10.55;5.85;;;6.80;99.90;;;;;;5007267;28;20100;-60
2021/11/30 10:51:28;;;;;;;11.70;6.20;;;6.90;99.90;;;;;;5002642;28;20129;-57
2021/11/30 10:53:59;;;;;;;9.35;4.88;;;6.90;99.90;;;;;;5009936;28;20013;-59
2021/11/30 10:56:26;;;;;;;7.57;4.38;;;6.90;99.90;;;;;;5008547;28;20026;-59
2021/11/30 10:58:56;;;;;;;9.90;5.60;;;6.90;99.90;;;;;;4999973;28;20022;-55
2021/11/30 11:01:24;;;;;;;6.68;4.70;;;7.00;99.90;;;;;;4994150;28;20046;-58
2021/11/30 11:04:14;;;;;;;12.13;5.90;;;7.00;99.90;;;;;;5018819;28;20026;-56
2021/11/30 11:06:40;;;;;;;6.63;4.57;;;7.00;99.90;;;;;;5013892;28;20037;-57
2021/11/30 11:09:10;;;;;;;7.78;4.68;;;7.10;99.90;;;;;;5014150;28;20401;-58
2021/11/30 11:11:41;;;;;;;6.32;4.47;;;7.10;99.90;;;;;;5014445;28;20507;-58
2021/11/30 11:14:43;;;;;;;5.85;3.78;;;7.10;99.90;;;;;;5011904;28;20042;-57
2021/11/30 11:17:10;;;;;;;6.45;4.50;;;7.20;99.90;;;;;;4999783;28;20045;-55
2021/11/30 11:19:41;;;;;;;12.88;5.22;;;7.20;99.90;;;;;;5011124;28;20036;-59
2021/11/30 11:22:15;;;;;;;8.32;4.63;;;7.20;99.90;;;;;;5006556;28;20049;-59
2021/11/30 11:24:42;;;;;;;7.70;4.80;;;7.20;99.90;;;;;;5001231;28;20399;-57
2021/11/30 11:27:08;;;;;;;7.45;3.97;;;7.20;99.90;;;;;;4998066;28;20508;-57
2021/11/30 11:29:35;;;;;;;6.68;4.20;;;7.20;99.90;;;;;;4999687;28;20102;-57
2021/11/30 11:32:04;;;;;;;6.20;4.32;;;7.20;99.90;;;;;;4999723;28;20025;-52
2021/11/30 11:34:32;;;;;;;6.30;3.35;;;7.30;99.90;;;;;;4998122;28;20392;-55
2021/11/30 11:37:00;;;;;;;5.20;3.63;;;7.30;99.90;;;;;;5001968;28;20699;-58
2021/11/30 11:39:28;;;;;;;5.97;3.70;;;7.30;99.90;;;;;;4997487;28;20057;-58
2021/11/30 11:42:00;;;;;;;4.65;3.17;;;7.30;99.90;;;;;;5000465;28;20022;-58
2021/11/30 11:44:26;;;;;;;7.40;3.92;;;7.30;99.90;;;;;;5004934;28;20553;-56
2021/11/30 11:46:53;;;;;;;3.58;3.15;;;7.30;99.90;;;;;;5010893;28;20025;-58
2021/11/30 11:49:21;;;;;;;5.30;3.75;;;7.30;99.90;;;;;;5014979;28;20041;-57
2021/11/30 11:51:49;;;;;;;4.70;3.67;;;7.30;99.90;;;;;;5016585;28;20491;-59
2021/11/30 11:54:23;;;;;;;8.13;3.05;;;7.30;99.90;;;;;;5000023;28;20057;-57
2021/11/30 11:57:09;;;;;;;4.43;3.10;;;7.30;99.90;;;;;;5005115;28;20036;-60
2021/11/30 11:59:37;;;;;;;4.65;3.15;;;7.30;99.90;;;;;;5010342;28;20029;-59
2021/11/30 12:02:23;;;;;;;4.45;3.22;;;7.30;99.90;;;;;;4994733;28;20045;-59
2021/11/30 12:05:00;;;;;;;6.80;3.45;;;7.30;99.90;;;;;;4998822;28;20038;-57
2021/11/30 12:07:28;;;;;;;8.55;3.42;;;7.30;99.90;;;;;;5006772;28;20104;-57
2021/11/30 12:10:22;;;;;;;4.75;3.80;;;7.30;99.90;;;;;;5013376;28;20083;-58
2021/11/30 12:12:59;;;;;;;5.63;4.15;;;7.40;99.90;;;;;;5003360;28;20034;-59
2021/11/30 12:15:31;;;;;;;3.35;2.50;;;7.40;99.90;;;;;;5014394;28;20711;-60
2021/11/30 12:18:35;;;;;;;5.03;3.30;;;7.50;99.90;;;;;;5007331;28;20026;-60
2021/11/30 12:21:18;;;;;;;3.47;2.92;;;7.50;99.90;;;;;;5016212;28;20110;-57
2021/11/30 12:23:49;;;;;;;5.88;3.75;;;7.40;99.90;;;;;;5010690;28;20730;-61
2021/11/30 12:26:38;;;;;;;3.78;2.60;;;7.40;99.90;;;;;;5001083;28;20030;-58
2021/11/30 12:29:35;;;;;;;5.35;3.20;;;7.50;99.90;;;;;;5000811;28;20022;-60
2021/11/30 12:32:31;;;;;;;3.85;2.85;;;7.50;99.90;;;;;;5004296;28;20021;-57
2021/11/30 12:35:01;;;;;;;4.88;3.55;;;7.50;99.90;;;;;;5003500;28;20507;-60
2021/11/30 12:37:32;;;;;;;3.38;2.40;;;7.50;99.90;;;;;;5004848;28;20022;-58
2021/11/30 12:40:06;;;;;;;7.18;3.35;;;7.50;99.90;;;;;;5011019;28;20033;-58
2021/11/30 12:42:52;;;;;;;7.50;3.90;;;7.50;99.90;;;;;;4999421;28;20097;-58
2021/11/30 12:45:43;;;;;;;3.58;2.67;;;7.50;99.90;;;;;;5006221;28;20038;-57
2021/11/30 12:48:17;;;;;;;6.15;2.53;;;7.50;99.90;;;;;;5020205;28;20025;-60
2021/11/30 12:50:43;;;;;;;4.80;2.72;;;7.60;99.90;;;;;;5008752;28;20101;-58
2021/11/30 12:53:09;;;;;;;4.18;2.58;;;7.50;99.90;;;;;;5019394;28;20486;-58
2021/11/30 12:55:52;;;;;;;3.63;2.92;;;7.60;99.90;;;;;;5005296;28;20029;-56
2021/11/30 12:58:39;;;;;;;2.88;2.42;;;7.60;99.90;;;;;;5006217;28;20034;-58
2021/11/30 13:01:17;;;;;;;4.63;3.25;;;7.60;99.90;;;;;;4988125;28;20071;-59
2021/11/30 13:03:43;;;;;;;3.60;2.75;;;7.60;99.90;;;;;;4989212;28;20072;-57
2021/11/30 13:06:09;;;;;;;4.63;2.97;;;7.60;99.90;;;;;;5005177;28;20084;-59
2021/11/30 13:09:04;;;;;;;4.78;3.40;;;7.60;99.90;;;;;;5002431;28;20258;-59